Dale, Iowa
Current Conditions -  °F | °C
As of 9:55 AM on Tuesday 21 Oct 2014 (Local Time) from KPRO Reporting Station
Clear Clear  
Wind Chill: 48°   Ceiling: Unl
Heat Index: 50°   Visibility: 10mi
Dew Point: 44°   Wind: 5mph
Humidity: 81%   Direction: 100°E
Pressure: 30.16"   Gusts: NA
Location:  41.5397°N, 94.299°W
Report Text: KPRO 211455Z AUTO 10004KT 10SM CLR 10/07 A3016 RMK AO2 T00990067
Loading
Personal Weather Stations






























Interactive Weather Map
Tropical Storm Tracking
New forecast layout! Learn more

10-Day Weather Forecast

Advertisements
Track Severe Weather on mobile